Time;durP1;ratioP1;P1;durP2;ratioP2;P2;SDS_P1;SDS_P2;PMS_P1;PMS_P2;Temp;Humidity;BMP_temperature;BMP_pressure;BME280_temperature;BME280_humidity;BME280_pressure;Samples;Min_cycle;Max_cycle;Signal;HPM_P1;HPM_P2
2022/02/22 00:00:51;;;;;;;7.53;2.80;;;18.40;99.90;;;;;;4147999;28;20271;-79
2022/02/22 00:02:53;;;;;;;6.18;2.72;;;18.40;99.90;;;;;;4148127;28;20244;-79
2022/02/22 00:04:55;;;;;;;6.53;2.95;;;18.40;99.90;;;;;;4149197;28;20654;-79
2022/02/22 00:06:58;;;;;;;8.38;2.78;;;18.40;99.90;;;;;;4149388;28;20264;-79
2022/02/22 00:09:00;;;;;;;6.20;2.55;;;18.40;99.90;;;;;;4148945;28;20220;-79
2022/02/22 00:11:03;;;;;;;5.95;2.70;;;18.40;99.90;;;;;;4146116;28;20241;-79
2022/02/22 00:13:05;;;;;;;5.60;2.63;;;18.30;99.90;;;;;;4147854;28;20244;-79
2022/02/22 00:15:09;;;;;;;6.97;2.72;;;18.40;99.90;;;;;;4149021;28;20673;-79
2022/02/22 00:17:12;;;;;;;6.72;2.95;;;18.30;99.90;;;;;;4145296;28;20740;-79
2022/02/22 00:19:15;;;;;;;6.72;2.53;;;18.30;99.90;;;;;;4145574;28;20267;-79
2022/02/22 00:21:17;;;;;;;9.13;3.20;;;18.30;99.90;;;;;;4148587;28;20291;-79
2022/02/22 00:23:20;;;;;;;6.65;2.75;;;18.30;99.90;;;;;;4148701;28;20732;-79
2022/02/22 00:25:23;;;;;;;7.43;2.72;;;18.30;99.90;;;;;;4148909;28;20225;-79
2022/02/22 00:27:25;;;;;;;6.90;2.85;;;18.30;99.90;;;;;;4148574;28;20686;-79
2022/02/22 00:29:27;;;;;;;6.88;2.58;;;18.30;99.90;;;;;;4148631;28;20205;-80
2022/02/22 00:31:30;;;;;;;8.70;3.15;;;18.30;99.90;;;;;;4148643;28;20209;-79
2022/02/22 00:33:34;;;;;;;8.60;2.55;;;18.30;99.90;;;;;;4148815;28;20217;-79
2022/02/22 00:35:37;;;;;;;6.90;2.67;;;18.30;99.90;;;;;;4146899;28;20625;-79
2022/02/22 00:37:39;;;;;;;5.20;2.50;;;18.30;99.90;;;;;;4144780;28;20258;-79
2022/02/22 00:39:42;;;;;;;4.93;2.47;;;18.20;99.90;;;;;;4148490;28;20291;-79
2022/02/22 00:41:44;;;;;;;7.43;2.50;;;18.20;99.90;;;;;;4148460;28;20213;-79
2022/02/22 00:43:46;;;;;;;7.28;2.70;;;18.30;99.90;;;;;;4148409;28;20283;-79
2022/02/22 00:45:49;;;;;;;6.03;2.33;;;18.20;99.90;;;;;;4147978;28;20271;-79
2022/02/22 00:47:51;;;;;;;4.80;2.40;;;18.20;99.90;;;;;;4148510;28;20255;-79
2022/02/22 00:49:55;;;;;;;7.93;3.05;;;18.20;99.90;;;;;;4148370;28;20279;-79
2022/02/22 00:51:57;;;;;;;6.03;2.55;;;18.20;99.90;;;;;;4147475;28;20220;-79
2022/02/22 00:54:00;;;;;;;5.10;2.42;;;18.20;99.90;;;;;;4143620;28;20225;-79
2022/02/22 00:56:02;;;;;;;7.72;2.80;;;18.20;99.90;;;;;;4144878;28;20701;-79
2022/02/22 00:58:06;;;;;;;8.80;2.75;;;18.20;99.90;;;;;;4145997;28;20244;-79
2022/02/22 01:00:10;;;;;;;6.43;2.55;;;18.20;99.90;;;;;;4148110;28;20271;-78
2022/02/22 01:02:12;;;;;;;8.43;2.67;;;18.20;99.90;;;;;;4148139;28;20371;-79
2022/02/22 01:04:15;;;;;;;4.80;2.75;;;18.20;99.90;;;;;;4147757;28;20322;-79
2022/02/22 01:06:18;;;;;;;9.05;2.75;;;18.10;99.90;;;;;;4147793;28;20263;-79
2022/02/22 01:08:21;;;;;;;5.80;2.70;;;18.10;99.90;;;;;;4144020;28;20213;-79
2022/02/22 01:10:23;;;;;;;6.60;2.33;;;18.10;99.90;;;;;;4147954;28;20245;-78
2022/02/22 01:12:25;;;;;;;7.75;2.88;;;18.10;99.90;;;;;;4146145;28;20279;-79
2022/02/22 01:14:28;;;;;;;6.47;2.58;;;18.10;99.90;;;;;;4142745;28;20299;-79
2022/02/22 01:16:30;;;;;;;7.32;2.63;;;18.10;99.90;;;;;;4147869;28;20217;-79
2022/02/22 01:18:32;;;;;;;6.03;2.55;;;18.10;99.90;;;;;;4147697;28;20225;-79
2022/02/22 01:20:35;;;;;;;9.20;3.03;;;18.10;99.90;;;;;;4147615;28;20217;-79
2022/02/22 01:22:40;;;;;;;5.15;2.17;;;18.10;99.90;;;;;;4147689;28;20212;-79
2022/02/22 01:24:43;;;;;;;6.93;2.63;;;18.10;99.90;;;;;;4147788;28;20279;-79
2022/02/22 01:26:45;;;;;;;11.27;3.13;;;18.10;99.90;;;;;;4147773;28;20217;-79
2022/02/22 01:28:47;;;;;;;6.05;2.63;;;18.10;99.90;;;;;;4148058;28;20279;-79
2022/02/22 01:30:50;;;;;;;5.03;2.30;;;18.10;99.90;;;;;;4148006;28;20241;-79
2022/02/22 01:32:52;;;;;;;6.55;2.47;;;18.10;99.90;;;;;;4144071;28;20213;-79
2022/02/22 01:34:54;;;;;;;7.38;2.60;;;18.00;99.90;;;;;;4143533;28;20610;-79
2022/02/22 01:36:56;;;;;;;5.25;2.50;;;18.00;99.90;;;;;;4146089;28;20736;-79
2022/02/22 01:39:00;;;;;;;7.57;2.55;;;18.00;99.90;;;;;;4147224;28;20267;-78
2022/02/22 01:41:03;;;;;;;6.07;2.40;;;18.00;99.90;;;;;;4147160;28;20247;-79
2022/02/22 01:43:05;;;;;;;7.10;2.72;;;18.00;99.90;;;;;;4145152;28;20259;-79
2022/02/22 01:45:09;;;;;;;6.97;2.58;;;18.00;99.90;;;;;;4141535;28;20222;-79
2022/02/22 01:47:12;;;;;;;7.18;3.08;;;18.00;99.90;;;;;;4147687;28;20217;-79
2022/02/22 01:49:15;;;;;;;6.80;2.53;;;18.00;99.90;;;;;;4146968;28;20283;-79
2022/02/22 01:51:18;;;;;;;8.48;2.55;;;18.00;99.90;;;;;;4143303;28;20228;-79
2022/02/22 01:53:20;;;;;;;6.68;2.50;;;18.00;99.90;;;;;;4145021;28;20225;-79
2022/02/22 01:55:24;;;;;;;6.13;2.45;;;18.00;99.90;;;;;;4147406;28;20658;-79
2022/02/22 01:57:28;;;;;;;7.60;2.97;;;18.00;99.90;;;;;;4147183;28;20658;-79
2022/02/22 01:59:30;;;;;;;6.10;2.55;;;18.00;99.90;;;;;;4147006;28;20209;-79
2022/02/22 02:01:32;;;;;;;8.88;2.65;;;18.00;99.90;;;;;;4146892;28;20205;-79
2022/02/22 02:03:35;;;;;;;8.27;2.40;;;18.00;99.90;;;;;;4147123;28;20310;-79
2022/02/22 02:05:37;;;;;;;6.90;2.55;;;18.00;99.90;;;;;;4145137;28;20268;-79
2022/02/22 02:07:40;;;;;;;7.68;2.67;;;17.90;99.90;;;;;;4147478;28;20213;-79
2022/02/22 02:09:42;;;;;;;6.65;2.65;;;17.90;99.90;;;;;;4143483;28;20217;-79
2022/02/22 02:11:48;;;;;;;6.97;2.45;;;17.90;99.90;;;;;;4143685;28;20241;-79
2022/02/22 02:13:51;;;;;;;7.18;2.50;;;17.90;99.90;;;;;;4147184;28;20264;-79
2022/02/22 02:15:53;;;;;;;5.93;2.50;;;18.00;99.90;;;;;;4146590;28;20267;-80
2022/02/22 02:17:55;;;;;;;8.75;2.63;;;17.90;99.90;;;;;;4146983;28;20217;-79
2022/02/22 02:19:58;;;;;;;6.43;2.90;;;17.90;99.90;;;;;;4147231;28;20217;-79
2022/02/22 02:22:01;;;;;;;5.03;2.20;;;17.90;99.90;;;;;;4147241;28;20213;-79
2022/02/22 02:24:12;;;;;;;5.85;2.50;;;17.90;99.90;;;;;;4145981;28;20508;-79
2022/02/22 02:26:14;;;;;;;7.20;2.75;;;17.90;99.90;;;;;;4146962;28;20344;-79
2022/02/22 02:28:16;;;;;;;7.80;2.20;;;17.90;99.90;;;;;;4146780;28;20270;-79
2022/02/22 02:30:19;;;;;;;6.03;2.38;;;17.90;99.90;;;;;;4142131;28;20230;-79
2022/02/22 02:32:21;;;;;;;6.68;2.78;;;17.90;99.90;;;;;;4147091;28;20260;-79
2022/02/22 02:34:30;;;;;;;7.85;2.85;;;17.90;99.90;;;;;;4146993;28;20287;-79
2022/02/22 02:36:33;;;;;;;5.75;2.45;;;17.90;99.90;;;;;;4146695;28;20239;-80
2022/02/22 02:38:37;;;;;;;6.10;2.50;;;17.90;99.90;;;;;;4146849;28;20225;-79
2022/02/22 02:40:39;;;;;;;5.72;2.30;;;17.90;99.90;;;;;;4147043;28;20205;-79
2022/02/22 02:42:43;;;;;;;6.78;2.90;;;17.90;99.90;;;;;;4144900;28;20213;-79
2022/02/22 02:44:46;;;;;;;6.13;2.53;;;17.90;99.90;;;;;;4146755;28;20224;-80
2022/02/22 02:46:49;;;;;;;6.22;2.72;;;17.90;99.90;;;;;;4146823;28;20248;-79
2022/02/22 02:48:53;;;;;;;9.30;2.90;;;17.80;99.90;;;;;;4140315;28;20221;-79
2022/02/22 02:50:55;;;;;;;6.85;2.60;;;17.80;99.90;;;;;;4143510;28;20286;-79
2022/02/22 02:52:57;;;;;;;6.47;2.88;;;17.80;99.90;;;;;;4143357;28;20592;-79
2022/02/22 02:55:01;;;;;;;6.88;2.67;;;17.80;99.90;;;;;;4143310;28;20225;-80
2022/02/22 02:57:04;;;;;;;6.57;2.58;;;17.80;99.90;;;;;;4142396;28;20281;-79
2022/02/22 02:59:09;;;;;;;6.45;2.40;;;17.80;99.90;;;;;;4144182;28;20259;-80
2022/02/22 03:01:11;;;;;;;5.78;2.38;;;17.80;99.90;;;;;;4143108;28;20259;-80
2022/02/22 03:03:13;;;;;;;7.90;2.53;;;17.80;99.90;;;;;;4144048;28;20225;-79
2022/02/22 03:05:16;;;;;;;7.82;2.75;;;17.80;99.90;;;;;;4144666;28;20631;-79
2022/02/22 03:07:18;;;;;;;5.40;2.13;;;17.80;99.90;;;;;;4143774;28;20228;-79
2022/02/22 03:09:20;;;;;;;6.82;2.72;;;17.80;99.90;;;;;;4144358;28;20270;-79
2022/02/22 03:11:24;;;;;;;6.68;2.45;;;17.80;99.90;;;;;;4143745;28;20295;-79
2022/02/22 03:13:26;;;;;;;6.93;2.42;;;17.80;99.90;;;;;;4143974;28;20670;-79
2022/02/22 03:15:29;;;;;;;7.03;2.63;;;17.80;99.90;;;;;;4144048;28;20221;-79
2022/02/22 03:17:31;;;;;;;8.00;2.70;;;17.80;99.90;;;;;;4143332;28;20275;-80
2022/02/22 03:19:33;;;;;;;6.45;2.40;;;17.80;99.90;;;;;;4143281;28;20517;-79
2022/02/22 03:21:36;;;;;;;5.93;1.98;;;17.80;99.90;;;;;;4143711;28;20217;-79
2022/02/22 03:23:38;;;;;;;7.60;2.50;;;17.70;99.90;;;;;;4143998;28;20259;-79
2022/02/22 03:25:41;;;;;;;5.25;2.22;;;17.70;99.90;;;;;;4142552;28;20218;-79
2022/02/22 03:27:45;;;;;;;6.43;2.33;;;17.80;99.90;;;;;;4146496;28;20213;-79
2022/02/22 03:29:47;;;;;;;5.30;2.30;;;17.70;99.90;;;;;;4147523;28;20275;-80
2022/02/22 03:31:49;;;;;;;5.57;2.30;;;17.70;99.90;;;;;;4148057;28;20697;-79
2022/02/22 03:33:52;;;;;;;5.85;2.40;;;17.80;99.90;;;;;;4146054;28;20216;-79
2022/02/22 03:35:55;;;;;;;7.55;2.67;;;17.70;99.90;;;;;;4147612;28;20979;-79
2022/02/22 03:37:57;;;;;;;4.65;2.38;;;17.70;99.90;;;;;;4147058;28;20221;-79
2022/02/22 03:40:00;;;;;;;8.48;2.50;;;17.70;99.90;;;;;;4146519;28;20216;-79
2022/02/22 03:42:02;;;;;;;4.18;2.13;;;17.70;99.90;;;;;;4149229;28;20217;-79
2022/02/22 03:44:06;;;;;;;6.85;2.45;;;17.70;99.90;;;;;;4148160;28;20670;-80
2022/02/22 03:46:08;;;;;;;6.70;2.35;;;17.70;99.90;;;;;;4149625;28;20209;-80
2022/02/22 03:48:11;;;;;;;7.63;2.45;;;17.70;99.90;;;;;;4149499;28;20221;-79
2022/02/22 03:50:15;;;;;;;7.38;2.58;;;17.70;99.90;;;;;;4149507;28;20255;-79
2022/02/22 03:52:17;;;;;;;5.32;2.53;;;17.70;99.90;;;;;;4149194;28;20706;-78
2022/02/22 03:54:19;;;;;;;7.82;2.53;;;17.70;99.90;;;;;;4149004;28;20267;-79
2022/02/22 03:56:22;;;;;;;6.38;2.10;;;17.70;99.90;;;;;;4149451;28;20271;-80
2022/02/22 03:58:24;;;;;;;5.45;1.92;;;17.70;99.90;;;;;;4146393;28;20284;-79
2022/02/22 04:00:28;;;;;;;6.93;2.45;;;17.70;99.90;;;;;;4149462;28;20221;-79
2022/02/22 04:02:30;;;;;;;5.10;2.17;;;17.70;99.90;;;;;;4149359;28;21001;-79
2022/02/22 04:04:33;;;;;;;7.82;2.88;;;17.70;99.90;;;;;;4148858;28;20647;-79
2022/02/22 04:06:35;;;;;;;6.53;2.58;;;17.70;99.90;;;;;;4149263;28;20217;-80
2022/02/22 04:08:38;;;;;;;7.05;2.50;;;17.70;99.90;;;;;;4148581;28;20213;-79
2022/02/22 04:10:40;;;;;;;7.47;2.92;;;17.70;99.90;;;;;;4148853;28;20213;-79
2022/02/22 04:12:42;;;;;;;4.72;2.55;;;17.60;99.90;;;;;;4148103;28;20291;-80
2022/02/22 04:14:45;;;;;;;6.32;2.40;;;17.60;99.90;;;;;;4144381;28;20288;-79
2022/02/22 04:16:49;;;;;;;7.47;2.22;;;17.60;99.90;;;;;;4146799;28;20217;-79
2022/02/22 04:18:51;;;;;;;7.22;2.50;;;17.60;99.90;;;;;;4149018;28;20217;-79
2022/02/22 04:20:53;;;;;;;6.40;2.53;;;17.60;99.90;;;;;;4149271;28;20343;-79
2022/02/22 04:22:56;;;;;;;7.32;2.60;;;17.60;99.90;;;;;;4149094;28;20221;-80
2022/02/22 04:24:58;;;;;;;5.68;2.70;;;17.60;99.90;;;;;;4148919;28;20221;-79
2022/02/22 04:27:00;;;;;;;8.05;2.30;;;17.60;99.90;;;;;;4149085;28;20225;-80
2022/02/22 04:29:03;;;;;;;6.43;2.50;;;17.60;99.90;;;;;;4148812;28;20225;-80
2022/02/22 04:31:06;;;;;;;4.60;2.05;;;17.60;99.90;;;;;;4148878;28;20221;-79
2022/02/22 04:33:09;;;;;;;6.75;2.72;;;17.60;99.90;;;;;;4148840;28;20245;-79
2022/02/22 04:35:12;;;;;;;8.30;2.88;;;17.60;99.90;;;;;;4148953;28;20225;-80
2022/02/22 04:37:15;;;;;;;6.57;2.60;;;17.50;99.90;;;;;;4148550;28;20697;-79
2022/02/22 04:39:18;;;;;;;8.98;3.03;;;17.50;99.90;;;;;;4148403;28;20272;-80
2022/02/22 04:41:20;;;;;;;6.30;2.85;;;17.50;99.90;;;;;;4148553;28;20275;-79
2022/02/22 04:43:23;;;;;;;7.22;2.63;;;17.50;99.90;;;;;;4148321;28;20210;-79
2022/02/22 04:45:26;;;;;;;6.72;2.33;;;17.60;99.90;;;;;;4146677;28;20468;-79
2022/02/22 04:47:28;;;;;;;5.00;2.15;;;17.50;99.90;;;;;;4148238;28;20217;-79
2022/02/22 04:49:32;;;;;;;7.97;2.75;;;17.50;99.90;;;;;;4146847;28;20214;-79
2022/02/22 04:51:35;;;;;;;4.65;2.55;;;17.50;99.90;;;;;;4148306;28;20217;-80
2022/02/22 04:53:37;;;;;;;10.23;2.85;;;17.50;99.90;;;;;;4148457;28;20241;-79
2022/02/22 04:55:40;;;;;;;6.03;2.33;;;17.50;99.90;;;;;;4148502;28;20755;-79
2022/02/22 04:57:42;;;;;;;8.35;2.70;;;17.50;99.90;;;;;;4148528;28;20221;-79
2022/02/22 04:59:44;;;;;;;6.82;2.03;;;17.50;99.90;;;;;;4148331;28;20642;-79
2022/02/22 05:01:47;;;;;;;6.50;2.42;;;17.50;99.90;;;;;;4147890;28;20275;-80
2022/02/22 05:03:49;;;;;;;7.70;2.60;;;17.50;99.90;;;;;;4147841;28;20229;-79
2022/02/22 05:05:53;;;;;;;6.75;2.30;;;17.50;99.90;;;;;;4148465;28;20215;-80
2022/02/22 05:07:56;;;;;;;5.82;1.92;;;17.50;99.90;;;;;;4148303;28;20213;-80
2022/02/22 05:09:59;;;;;;;5.70;2.13;;;17.50;99.90;;;;;;4148384;28;20221;-79
2022/02/22 05:12:01;;;;;;;5.47;2.53;;;17.50;99.90;;;;;;4148110;28;20221;-79
2022/02/22 05:14:04;;;;;;;7.20;2.50;;;17.50;99.90;;;;;;4146376;28;20332;-80
2022/02/22 05:16:07;;;;;;;5.50;1.92;;;17.50;99.90;;;;;;4147826;28;20279;-80
2022/02/22 05:18:09;;;;;;;7.57;2.63;;;17.50;99.90;;;;;;4147868;28;20610;-79
2022/02/22 05:20:12;;;;;;;7.45;2.85;;;17.50;99.90;;;;;;4147642;28;20260;-79
2022/02/22 05:22:16;;;;;;;5.30;2.28;;;17.40;99.90;;;;;;4146494;28;20267;-80
2022/02/22 05:24:18;;;;;;;5.60;2.53;;;17.40;99.90;;;;;;4148216;28;20236;-80
2022/02/22 05:26:21;;;;;;;10.43;2.42;;;17.40;99.90;;;;;;4148049;28;20217;-79
2022/02/22 05:28:23;;;;;;;7.47;2.28;;;17.40;99.90;;;;;;4147839;28;20216;-79
2022/02/22 05:30:26;;;;;;;7.03;2.55;;;17.40;99.90;;;;;;4147861;28;20225;-79
2022/02/22 05:32:28;;;;;;;8.55;2.53;;;17.40;99.90;;;;;;4147866;28;20244;-80
2022/02/22 05:34:31;;;;;;;5.30;2.10;;;17.40;99.90;;;;;;4147576;28;20220;-80
2022/02/22 05:36:33;;;;;;;7.10;2.53;;;17.40;99.90;;;;;;4147774;28;20213;-79
2022/02/22 05:38:37;;;;;;;7.75;2.58;;;17.40;99.90;;;;;;4147793;28;20272;-79
2022/02/22 05:40:39;;;;;;;6.72;2.60;;;17.40;99.90;;;;;;4145444;28;20221;-79
2022/02/22 05:42:42;;;;;;;5.93;2.38;;;17.40;99.90;;;;;;4147376;28;20222;-79
2022/02/22 05:44:44;;;;;;;6.18;2.30;;;17.40;99.90;;;;;;4147432;28;20613;-80
2022/02/22 05:46:46;;;;;;;5.75;2.40;;;17.40;99.90;;;;;;4147628;28;20209;-80
2022/02/22 05:48:49;;;;;;;7.43;2.53;;;17.30;99.90;;;;;;4146344;28;20228;-80
2022/02/22 05:50:51;;;;;;;6.88;2.22;;;17.40;99.90;;;;;;4146387;28;20747;-79
2022/02/22 05:52:55;;;;;;;6.97;2.78;;;17.40;99.90;;;;;;4146887;28;20241;-79
2022/02/22 05:54:59;;;;;;;7.57;2.42;;;17.20;99.90;;;;;;4147329;28;20628;-80
2022/02/22 05:57:01;;;;;;;7.53;2.63;;;17.00;99.90;;;;;;4147475;28;20209;-79
2022/02/22 05:59:03;;;;;;;7.82;2.75;;;17.00;99.90;;;;;;4147183;28;20213;-80
2022/02/22 06:01:06;;;;;;;6.47;2.13;;;17.10;99.90;;;;;;4146312;28;20240;-80
2022/02/22 06:03:08;;;;;;;5.60;2.17;;;17.20;99.90;;;;;;4143501;28;20237;-80
2022/02/22 06:05:11;;;;;;;6.35;2.50;;;17.20;99.90;;;;;;4145342;28;20209;-80
2022/02/22 06:07:13;;;;;;;5.97;2.35;;;17.30;99.90;;;;;;4147207;28;20229;-79
2022/02/22 06:09:15;;;;;;;6.72;2.45;;;17.40;99.90;;;;;;4147549;28;20221;-80
2022/02/22 06:11:19;;;;;;;7.78;2.65;;;17.40;99.90;;;;;;4147253;28;20225;-79
2022/02/22 06:13:21;;;;;;;8.13;2.67;;;17.50;99.90;;;;;;4147307;28;20221;-80
2022/02/22 06:15:24;;;;;;;5.90;2.38;;;17.50;99.90;;;;;;4147328;28;20271;-79
2022/02/22 06:17:26;;;;;;;8.65;2.83;;;17.50;99.90;;;;;;4147053;28;20267;-80
2022/02/22 06:19:28;;;;;;;7.57;3.13;;;17.50;99.90;;;;;;4146919;28;20568;-80
2022/02/22 06:21:31;;;;;;;6.53;2.50;;;17.50;99.90;;;;;;4147144;28;20236;-80
2022/02/22 06:23:34;;;;;;;7.82;2.38;;;17.50;99.90;;;;;;4145437;28;20217;-80
2022/02/22 06:25:36;;;;;;;9.40;2.67;;;17.50;99.90;;;;;;4147069;28;20225;-79
2022/02/22 06:27:53;;;;;;;9.60;2.75;;;17.50;99.90;;;;;;4147037;28;20221;-79
2022/02/22 06:29:56;;;;;;;9.35;3.00;;;17.50;99.90;;;;;;4147366;28;20627;-80
2022/02/22 06:31:58;;;;;;;7.00;2.38;;;17.50;99.90;;;;;;4146617;28;20229;-79
2022/02/22 06:34:04;;;;;;;9.77;2.67;;;17.50;99.90;;;;;;4143922;28;20236;-80
2022/02/22 06:36:07;;;;;;;7.80;2.47;;;17.60;99.90;;;;;;4147178;28;20240;-80
2022/02/22 06:38:09;;;;;;;7.40;2.78;;;17.60;99.90;;;;;;4147108;28;20209;-80
2022/02/22 06:40:12;;;;;;;7.30;2.80;;;17.50;99.90;;;;;;4147134;28;20752;-80
2022/02/22 06:42:14;;;;;;;12.30;2.70;;;17.60;99.90;;;;;;4146666;28;20224;-79
2022/02/22 06:44:19;;;;;;;5.82;2.50;;;17.60;99.90;;;;;;4147075;28;20213;-80
2022/02/22 06:46:21;;;;;;;7.40;2.65;;;17.60;99.90;;;;;;4146828;28;20683;-80
2022/02/22 06:48:24;;;;;;;7.22;2.25;;;17.60;99.90;;;;;;4146789;28;20295;-80
2022/02/22 06:50:28;;;;;;;9.25;2.65;;;17.60;99.90;;;;;;4145964;28;20255;-80
2022/02/22 06:52:30;;;;;;;7.05;2.33;;;17.60;99.90;;;;;;4147091;28;20217;-80
2022/02/22 06:54:33;;;;;;;7.65;2.65;;;17.60;99.90;;;;;;4146595;28;20232;-79
2022/02/22 06:56:35;;;;;;;10.13;3.00;;;17.60;99.90;;;;;;4146980;28;20662;-80
2022/02/22 06:58:39;;;;;;;5.80;2.33;;;17.60;99.90;;;;;;4146218;28;20224;-80
2022/02/22 07:00:45;;;;;;;6.72;2.63;;;17.60;99.90;;;;;;4146431;28;20606;-79
2022/02/22 07:02:48;;;;;;;10.65;3.45;;;17.60;99.90;;;;;;4146088;28;20213;-79
2022/02/22 07:04:51;;;;;;;8.68;2.97;;;17.60;99.90;;;;;;4142570;28;20874;-79
2022/02/22 07:06:53;;;;;;;6.18;2.60;;;17.60;99.90;;;;;;4146613;28;20220;-80
2022/02/22 07:08:55;;;;;;;7.05;2.65;;;17.70;99.90;;;;;;4144898;28;20302;-80
2022/02/22 07:10:58;;;;;;;6.82;2.42;;;17.70;99.90;;;;;;4143691;28;20221;-80
2022/02/22 07:13:00;;;;;;;7.88;2.45;;;17.70;99.90;;;;;;4146573;28;20290;-80
2022/02/22 07:15:05;;;;;;;7.60;2.72;;;17.70;99.90;;;;;;4146176;28;20563;-80
2022/02/22 07:17:09;;;;;;;6.40;2.25;;;17.70;99.90;;;;;;4146461;28;20225;-80
2022/02/22 07:19:12;;;;;;;7.72;2.60;;;17.70;99.90;;;;;;4146614;28;20259;-80
2022/02/22 07:21:14;;;;;;;7.22;2.78;;;17.70;99.90;;;;;;4146668;28;20674;-79
2022/02/22 07:23:17;;;;;;;6.15;2.42;;;17.70;99.90;;;;;;4146594;28;20287;-80
2022/02/22 07:25:20;;;;;;;7.57;2.55;;;17.60;99.90;;;;;;4147050;28;20201;-80
2022/02/22 07:27:23;;;;;;;8.18;3.00;;;17.70;99.90;;;;;;4146557;28;20267;-79
2022/02/22 07:29:25;;;;;;;7.15;2.58;;;17.70;99.90;;;;;;4146269;28;20739;-80
2022/02/22 07:31:29;;;;;;;9.55;3.28;;;17.70;99.90;;;;;;4146519;28;20213;-80
2022/02/22 07:33:31;;;;;;;7.15;2.97;;;17.70;99.90;;;;;;4146276;28;20708;-79
2022/02/22 07:35:34;;;;;;;8.48;3.20;;;17.70;99.90;;;;;;4146654;28;20268;-79
2022/02/22 07:37:37;;;;;;;8.15;2.75;;;17.70;99.90;;;;;;4146614;28;20255;-79
2022/02/22 07:39:39;;;;;;;5.78;2.40;;;17.70;99.90;;;;;;4144679;28;20566;-79
2022/02/22 07:41:42;;;;;;;8.55;3.08;;;17.80;99.90;;;;;;4146103;28;20259;-80
2022/02/22 07:43:44;;;;;;;9.82;3.10;;;17.70;99.90;;;;;;4146415;28;20717;-80
2022/02/22 07:45:46;;;;;;;8.18;2.90;;;17.80;99.90;;;;;;4146453;28;20271;-79
2022/02/22 07:47:50;;;;;;;7.97;2.92;;;17.80;99.90;;;;;;4146448;28;20573;-79
2022/02/22 07:49:53;;;;;;;7.85;2.90;;;17.80;99.90;;;;;;4144372;28;20662;-80
2022/02/22 07:51:55;;;;;;;10.75;2.90;;;17.80;99.90;;;;;;4142864;28;20259;-79
2022/02/22 07:53:57;;;;;;;10.70;3.03;;;17.80;99.90;;;;;;4142466;28;20257;-80
2022/02/22 07:56:04;;;;;;;15.07;4.10;;;17.80;99.90;;;;;;4145401;28;20221;-81
2022/02/22 07:58:07;;;;;;;10.80;2.90;;;18.00;99.90;;;;;;4144676;28;20271;-81
2022/02/22 08:00:11;;;;;;;7.93;2.63;;;18.00;99.90;;;;;;4139039;28;20465;-81
2022/02/22 08:02:13;;;;;;;11.35;3.55;;;18.00;99.90;;;;;;4144170;28;20217;-81
2022/02/22 08:04:17;;;;;;;15.45;3.38;;;18.30;99.90;;;;;;4143716;28;20782;-80
2022/02/22 08:06:19;;;;;;;11.07;3.30;;;18.50;99.90;;;;;;4143628;28;20740;-81
2022/02/22 08:08:22;;;;;;;9.60;3.42;;;18.60;99.70;;;;;;4144229;28;20209;-82
2022/02/22 08:10:24;;;;;;;10.52;3.45;;;18.70;99.50;;;;;;4142542;28;20626;-83
2022/02/22 08:12:27;;;;;;;15.00;4.20;;;18.60;99.20;;;;;;4138999;28;20584;-77
2022/02/22 08:14:30;;;;;;;13.32;3.90;;;18.60;99.30;;;;;;4138663;28;20299;-81
2022/02/22 08:16:32;;;;;;;13.10;4.15;;;18.60;99.10;;;;;;4144904;28;20221;-80
2022/02/22 08:18:34;;;;;;;11.82;4.00;;;18.70;98.90;;;;;;4144661;28;20209;-79
2022/02/22 08:20:40;;;;;;;14.75;4.05;;;18.80;98.90;;;;;;4139778;28;20212;-78
2022/02/22 08:22:42;;;;;;;13.25;3.70;;;18.90;98.70;;;;;;4141145;28;20229;-87
2022/02/22 08:24:45;;;;;;;14.82;4.07;;;19.00;98.80;;;;;;4142694;28;20213;-87
2022/02/22 08:26:51;;;;;;;10.23;3.03;;;19.20;99.10;;;;;;4145427;28;20678;-77
2022/02/22 08:28:53;;;;;;;14.30;4.38;;;19.30;98.90;;;;;;4144432;28;20217;-83
2022/02/22 08:30:56;;;;;;;13.23;4.13;;;19.30;99.40;;;;;;4145177;28;20213;-82
2022/02/22 08:32:59;;;;;;;12.48;3.70;;;19.30;99.30;;;;;;4145276;28;20217;-76
2022/02/22 08:35:01;;;;;;;12.55;4.15;;;19.20;99.50;;;;;;4145330;28;20249;-77
2022/02/22 08:37:05;;;;;;;12.45;3.67;;;19.30;99.70;;;;;;4143905;28;20221;-77
2022/02/22 08:39:07;;;;;;;14.85;4.15;;;19.50;99.50;;;;;;4142999;28;20213;-81
2022/02/22 08:41:10;;;;;;;9.45;3.25;;;19.60;99.40;;;;;;4145126;28;20670;-82
2022/02/22 08:43:13;;;;;;;9.10;3.30;;;19.60;99.40;;;;;;4145380;28;20955;-82
2022/02/22 08:45:15;;;;;;;13.25;4.10;;;19.70;99.30;;;;;;4142999;28;20241;-83
2022/02/22 08:47:18;;;;;;;9.05;3.05;;;19.80;99.30;;;;;;4142105;28;20291;-82
2022/02/22 08:49:20;;;;;;;12.52;3.60;;;19.80;99.40;;;;;;4143060;28;20278;-82
2022/02/22 08:51:23;;;;;;;8.60;3.58;;;19.80;99.40;;;;;;4142472;28;20212;-78
2022/02/22 08:53:27;;;;;;;11.30;3.70;;;19.80;99.50;;;;;;4139913;28;20283;-82
2022/02/22 08:55:29;;;;;;;10.00;3.42;;;19.90;99.60;;;;;;4145261;28;20229;-80
2022/02/22 08:57:31;;;;;;;14.93;3.90;;;19.90;99.30;;;;;;4137319;28;20210;-80
2022/02/22 08:59:34;;;;;;;8.82;3.30;;;20.00;99.30;;;;;;4142472;28;20263;-80
2022/02/22 09:01:36;;;;;;;13.23;3.95;;;20.00;99.40;;;;;;4146599;28;20263;-82
2022/02/22 09:03:45;;;;;;;10.23;3.55;;;20.00;99.30;;;;;;4147748;28;20237;-82
2022/02/22 09:05:49;;;;;;;11.38;3.70;;;20.00;99.40;;;;;;4147557;28;20201;-80
2022/02/22 09:07:52;;;;;;;10.52;3.80;;;20.00;99.60;;;;;;4146869;28;20213;-79
2022/02/22 09:09:56;;;;;;;9.20;3.28;;;20.00;99.70;;;;;;4144301;28;20209;-85
2022/02/22 09:11:59;;;;;;;10.48;3.25;;;20.10;99.70;;;;;;4144257;28;20263;-80
2022/02/22 09:14:01;;;;;;;9.45;3.78;;;20.10;99.90;;;;;;4146069;28;20263;-80
2022/02/22 09:16:04;;;;;;;12.63;3.60;;;20.20;99.50;;;;;;4147240;28;20295;-77
2022/02/22 09:18:07;;;;;;;16.25;3.88;;;20.30;99.10;;;;;;4146453;28;20247;-80
2022/02/22 09:20:16;;;;;;;11.50;3.72;;;20.30;99.00;;;;;;4144192;28;20213;-87
2022/02/22 09:22:18;;;;;;;11.32;3.90;;;20.30;99.20;;;;;;4142013;28;20562;-85
2022/02/22 09:24:21;;;;;;;11.73;3.85;;;20.40;99.20;;;;;;4149083;28;20213;-83
2022/02/22 09:26:28;;;;;;;17.55;4.75;;;20.40;99.20;;;;;;4145479;28;20209;-82
2022/02/22 09:28:30;;;;;;;23.85;4.35;;;20.50;99.20;;;;;;4145511;28;20221;-81
2022/02/22 09:30:34;;;;;;;20.73;4.25;;;20.60;99.00;;;;;;4146062;28;20724;-83
2022/02/22 09:32:36;;;;;;;10.15;3.70;;;20.60;99.20;;;;;;4146501;28;20213;-85
2022/02/22 09:34:39;;;;;;;18.80;4.13;;;20.60;98.80;;;;;;4147397;28;20221;-86
2022/02/22 09:36:41;;;;;;;11.18;3.22;;;20.60;98.80;;;;;;4147694;28;20643;-86
2022/02/22 09:38:44;;;;;;;11.10;3.47;;;20.60;99.60;;;;;;4147780;28;20625;-84
2022/02/22 09:40:47;;;;;;;9.68;4.05;;;20.60;99.70;;;;;;4143523;28;20213;-87
2022/02/22 09:42:54;;;;;;;10.35;3.50;;;20.60;99.30;;;;;;4148966;28;20225;-91
2022/02/22 09:44:58;;;;;;;14.90;3.65;;;20.70;99.50;;;;;;4148451;28;20577;-90
2022/02/22 09:47:02;;;;;;;11.23;3.40;;;20.70;99.80;;;;;;4148370;28;20681;-85
2022/02/22 09:49:04;;;;;;;12.10;4.13;;;20.70;99.60;;;;;;4142944;28;20217;-84
2022/02/22 09:51:07;;;;;;;16.50;4.32;;;20.60;99.60;;;;;;4148778;28;20611;-84
2022/02/22 09:53:09;;;;;;;12.52;3.50;;;20.70;99.40;;;;;;4148764;28;20213;-83
2022/02/22 09:55:12;;;;;;;12.40;4.07;;;20.70;99.10;;;;;;4148078;28;20233;-89
2022/02/22 09:57:14;;;;;;;10.00;4.10;;;20.80;99.40;;;;;;4148468;28;20259;-85
2022/02/22 09:59:21;;;;;;;9.98;3.42;;;20.80;99.40;;;;;;4142713;28;20613;-82
2022/02/22 10:01:25;;;;;;;7.47;3.05;;;20.80;99.60;;;;;;4141006;28;20228;-81
2022/02/22 10:03:27;;;;;;;12.15;3.92;;;20.80;99.90;;;;;;4147162;28;20612;-82
2022/02/22 10:05:30;;;;;;;11.15;3.88;;;20.80;99.80;;;;;;4145038;28;20614;-83
2022/02/22 10:07:43;;;;;;;12.73;4.20;;;20.80;99.90;;;;;;4140581;28;20221;-80
2022/02/22 10:09:55;;;;;;;16.70;4.55;;;20.80;99.80;;;;;;4140385;28;20308;-78
2022/02/22 10:11:57;;;;;;;10.52;4.13;;;20.90;99.70;;;;;;4141517;28;20229;-78
2022/02/22 10:14:01;;;;;;;11.00;4.07;;;21.00;99.70;;;;;;4140308;28;20217;-82
2022/02/22 10:16:12;;;;;;;12.95;4.07;;;21.10;99.70;;;;;;4144416;28;20233;-78
2022/02/22 10:18:17;;;;;;;11.23;4.03;;;21.20;99.50;;;;;;4143660;28;20208;-78
2022/02/22 10:20:20;;;;;;;12.35;4.40;;;21.40;99.30;;;;;;4144296;28;20805;-81
2022/02/22 10:22:22;;;;;;;11.27;3.75;;;21.40;99.20;;;;;;4142385;28;20846;-85
2022/02/22 10:24:26;;;;;;;13.15;4.40;;;21.50;99.30;;;;;;4143288;28;20214;-79
2022/02/22 10:26:29;;;;;;;12.65;4.88;;;21.50;99.20;;;;;;4144396;28;20217;-81
2022/02/22 10:28:31;;;;;;;13.48;4.20;;;21.70;99.20;;;;;;4143900;28;20217;-82
2022/02/22 10:30:39;;;;;;;12.48;4.28;;;21.80;99.00;;;;;;4143662;28;20212;-79
2022/02/22 10:32:43;;;;;;;10.75;4.10;;;21.80;99.00;;;;;;4140828;28;20240;-83
2022/02/22 10:34:50;;;;;;;9.82;4.32;;;21.90;98.90;;;;;;4142046;28;20239;-82
2022/02/22 10:36:55;;;;;;;17.00;4.90;;;21.90;98.80;;;;;;4143032;28;20244;-81
2022/02/22 10:39:04;;;;;;;15.18;4.30;;;21.90;99.00;;;;;;4140782;28;20229;-79